Time;durP1;ratioP1;P1;durP2;ratioP2;P2;SDS_P1;SDS_P2;PMS_P1;PMS_P2;Temp;Humidity;BMP_temperature;BMP_pressure;BME280_temperature;BME280_humidity;BME280_pressure;Samples;Min_cycle;Max_cycle;Signal;HPM_P1;HPM_P2
2023/02/20 00:02:11;;;;;;;4.80;1.50;;;;;;;-0.93;100.00;98931.80;107759;1270;23219;-67
2023/02/20 00:04:40;;;;;;;3.40;1.30;;;;;;;-0.87;100.00;98926.48;107645;1268;25499;-67
2023/02/20 00:07:08;;;;;;;5.20;1.30;;;;;;;-0.86;100.00;98933.40;107564;1267;23895;-67
2023/02/20 00:09:36;;;;;;;4.60;1.40;;;;;;;-0.90;100.00;98931.69;107772;1267;25414;-68
2023/02/20 00:12:10;;;;;;;3.00;1.40;;;;;;;-0.93;100.00;98935.95;107847;1267;23290;-68
2023/02/20 00:14:42;;;;;;;3.40;1.30;;;;;;;-0.91;100.00;98936.14;107674;1273;23429;-68
2023/02/20 00:17:11;;;;;;;3.80;1.40;;;;;;;-0.87;100.00;98936.60;107611;1268;25350;-68
2023/02/20 00:19:40;;;;;;;5.00;1.60;;;;;;;-0.90;100.00;98936.42;107518;1270;22550;-68
2023/02/20 00:22:08;;;;;;;4.20;1.40;;;;;;;-0.93;100.00;98936.66;107547;1267;22989;-67
2023/02/20 00:24:37;;;;;;;4.30;1.10;;;;;;;-0.96;100.00;98937.08;107730;1267;27132;-68
2023/02/20 00:27:05;;;;;;;4.40;1.40;;;;;;;-0.93;100.00;98936.93;107678;1273;22543;-67
2023/02/20 00:29:35;;;;;;;4.00;1.30;;;;;;;-0.90;100.00;98934.25;107780;1267;22644;-68
2023/02/20 00:32:06;;;;;;;4.10;1.70;;;;;;;-0.93;100.00;98935.27;107590;1267;23503;-68
2023/02/20 00:34:34;;;;;;;4.40;1.10;;;;;;;-0.98;100.00;98932.55;107455;1268;22668;-68
2023/02/20 00:37:04;;;;;;;5.50;1.50;;;;;;;-1.02;100.00;98931.55;107649;1267;24221;-68
2023/02/20 00:39:33;;;;;;;5.50;1.40;;;;;;;-1.00;100.00;98933.30;110247;1270;23407;-68
2023/02/20 00:42:02;;;;;;;6.80;1.50;;;;;;;-0.96;100.00;98932.60;110227;1267;22336;-68
2023/02/20 00:44:32;;;;;;;5.30;1.50;;;;;;;-0.97;100.00;98932.08;110192;1267;22339;-68
2023/02/20 00:47:01;;;;;;;3.20;1.20;;;;;;;-1.02;100.00;98933.80;110242;1267;22401;-68
2023/02/20 00:49:29;;;;;;;3.90;1.40;;;;;;;-1.06;100.00;98932.42;110375;1269;22447;-68
2023/02/20 00:52:09;;;;;;;4.60;1.60;;;;;;;-1.03;100.00;98929.81;110372;1268;22357;-68
2023/02/20 00:54:38;;;;;;;4.50;1.80;;;;;;;-1.00;100.00;98928.48;110376;1274;23089;-68
2023/02/20 00:57:07;;;;;;;5.50;1.40;;;;;;;-1.01;100.00;98930.75;110384;1267;22266;-67
2023/02/20 00:59:35;;;;;;;5.50;1.50;;;;;;;-1.04;100.00;98925.63;110292;1270;22337;-68
2023/02/20 01:02:20;;;;;;;4.40;1.30;;;;;;;-0.97;100.00;98922.83;110297;1271;22294;-68
2023/02/20 01:04:50;;;;;;;7.10;1.80;;;;;;;-0.95;100.00;98924.45;110254;1269;23253;-70
2023/02/20 01:07:18;;;;;;;6.00;1.70;;;;;;;-0.96;100.00;98923.57;110238;1273;23540;-69
2023/02/20 01:09:46;;;;;;;4.20;1.10;;;;;;;-0.99;100.00;98928.44;110181;1270;22395;-68
2023/02/20 01:12:15;;;;;;;2.90;1.10;;;;;;;-1.02;100.00;98927.34;110275;1272;22471;-68
2023/02/20 01:14:45;;;;;;;3.70;1.40;;;;;;;-0.96;100.00;98928.49;110307;1270;22449;-68
2023/02/20 01:17:13;;;;;;;4.50;1.50;;;;;;;-0.89;100.00;98926.69;110257;1272;22882;-68
2023/02/20 01:19:43;;;;;;;5.60;1.40;;;;;;;-0.92;100.00;98927.28;110306;1267;22893;-68
2023/02/20 01:22:11;;;;;;;2.80;1.00;;;;;;;-0.95;100.00;98930.88;110260;1272;22591;-68
2023/02/20 01:24:40;;;;;;;6.00;1.30;;;;;;;-0.96;100.00;98929.86;110279;1267;22552;-68
2023/02/20 01:27:09;;;;;;;5.30;1.60;;;;;;;-0.92;100.00;98926.73;110316;1270;23073;-68
2023/02/20 01:29:37;;;;;;;5.00;1.20;;;;;;;-0.89;100.00;98928.12;110278;1272;22406;-68
2023/02/20 01:32:06;;;;;;;5.00;1.20;;;;;;;-0.93;100.00;98927.77;110323;1267;22316;-68
2023/02/20 01:34:35;;;;;;;5.90;1.40;;;;;;;-0.99;100.00;98925.35;109161;1267;22611;-68
2023/02/20 01:37:03;;;;;;;3.60;1.20;;;;;;;-1.02;100.00;98926.44;107764;1267;25370;-68
2023/02/20 01:39:31;;;;;;;4.70;1.60;;;;;;;-0.98;100.00;98922.40;107755;1270;22644;-67
2023/02/20 01:42:01;;;;;;;3.70;1.40;;;;;;;-0.97;100.00;98925.96;107697;1269;23875;-68
2023/02/20 01:44:31;;;;;;;4.00;1.60;;;;;;;-1.02;100.00;98927.39;107571;1267;22526;-67
2023/02/20 01:47:00;;;;;;;4.30;1.40;;;;;;;-1.07;100.00;98928.21;107945;1267;22629;-68
2023/02/20 01:49:35;;;;;;;4.70;2.00;;;;;;;-1.10;100.00;98927.55;108176;1270;23298;-68
2023/02/20 01:52:13;;;;;;;4.00;1.40;;;;;;;-1.08;100.00;98929.23;107714;1267;24245;-67
2023/02/20 01:54:42;;;;;;;4.10;1.50;;;;;;;-1.07;100.00;98932.58;107770;1267;24093;-67
2023/02/20 01:57:15;;;;;;;4.00;1.40;;;;;;;-1.11;100.00;98928.36;107777;1274;22547;-68
2023/02/20 01:59:43;;;;;;;4.10;1.20;;;;;;;-1.18;100.00;98927.45;107925;1272;22494;-67
2023/02/20 02:02:14;;;;;;;6.30;1.20;;;;;;;-1.14;100.00;98933.14;107974;1267;24369;-67
2023/02/20 02:04:42;;;;;;;4.70;1.50;;;;;;;-1.11;100.00;98933.02;107655;1271;24333;-67
2023/02/20 02:07:14;;;;;;;3.20;1.00;;;;;;;-1.12;100.00;98935.02;107666;1268;22554;-67
2023/02/20 02:09:51;;;;;;;4.40;1.00;;;;;;;-1.16;100.00;98931.89;107564;1270;24034;-67
2023/02/20 02:12:21;;;;;;;4.40;1.20;;;;;;;-1.20;100.00;98930.11;110199;1272;22471;-68
2023/02/20 02:14:50;;;;;;;5.40;1.90;;;;;;;-1.15;100.00;98929.58;110118;1268;22309;-68
2023/02/20 02:17:37;;;;;;;4.30;1.00;;;;;;;-1.12;100.00;98931.58;110198;1269;22427;-68
2023/02/20 02:20:11;;;;;;;3.40;1.10;;;;;;;-1.17;100.00;98931.68;110275;1270;23208;-68
2023/02/20 02:22:48;;;;;;;6.10;1.30;;;;;;;-1.22;100.00;98935.58;110299;1272;23053;-68
2023/02/20 02:25:51;;;;;;;3.00;0.90;;;;;;;-1.18;100.00;98936.27;110192;1273;22419;-68
2023/02/20 02:28:32;;;;;;;3.60;1.20;;;;;;;-1.17;100.00;98941.15;110128;1267;23288;-68
2023/02/20 02:31:31;;;;;;;4.00;1.40;;;;;;;-1.26;100.00;98937.16;109436;1267;27638;-67
2023/02/20 02:34:25;;;;;;;2.90;1.10;;;;;;;-1.30;100.00;98945.17;107717;1268;22526;-67
2023/02/20 02:37:10;;;;;;;4.40;1.60;;;;;;;-1.32;100.00;98940.54;107671;1274;23339;-67
2023/02/20 02:39:50;;;;;;;3.10;1.00;;;;;;;-1.29;100.00;98932.71;107714;1273;23301;-68
2023/02/20 02:42:42;;;;;;;3.70;1.20;;;;;;;-1.33;100.00;98936.80;107652;1273;23196;-67
2023/02/20 02:45:16;;;;;;;4.90;1.30;;;;;;;-1.40;100.00;98942.84;108121;1273;22537;-68
2023/02/20 02:47:50;;;;;;;3.10;1.00;;;;;;;-1.42;100.00;98946.64;107650;1267;26657;-67
2023/02/20 02:50:28;;;;;;;3.60;1.10;;;;;;;-1.37;100.00;98943.61;107563;1272;22728;-67
2023/02/20 02:52:56;;;;;;;4.80;0.90;;;;;;;-1.36;100.00;98940.16;107688;1269;24329;-67
2023/02/20 02:55:29;;;;;;;4.50;0.90;;;;;;;-1.43;100.00;98937.31;107561;1267;25488;-67
2023/02/20 02:57:57;;;;;;;4.00;1.00;;;;;;;-1.48;100.00;98936.82;107461;1275;24291;-67
2023/02/20 03:00:28;;;;;;;4.00;1.30;;;;;;;-1.51;100.00;98932.88;107636;1267;22582;-67
2023/02/20 03:03:07;;;;;;;2.80;1.10;;;;;;;-1.44;100.00;98933.30;107601;1270;22608;-67
2023/02/20 03:05:47;;;;;;;2.70;1.00;;;;;;;-1.44;100.00;98932.89;107352;1275;22537;-68
2023/02/20 03:08:32;;;;;;;3.00;1.00;;;;;;;-1.51;100.00;98934.70;107513;1275;22646;-67
2023/02/20 03:11:05;;;;;;;3.50;1.10;;;;;;;-1.56;100.00;98933.19;107553;1273;22659;-68
2023/02/20 03:16:58;;;;;;;3.10;1.00;;;;;;;-1.52;100.00;98935.02;110340;1273;23215;-68
2023/02/20 03:19:45;;;;;;;2.70;0.90;;;;;;;-1.56;100.00;98943.42;110105;1267;22174;-68
2023/02/20 03:22:35;;;;;;;4.70;0.80;;;;;;;-1.60;100.00;98951.45;110205;1273;22731;-68
2023/02/20 03:25:13;;;;;;;2.90;0.80;;;;;;;-1.55;100.00;98950.56;110279;1267;23302;-68
2023/02/20 03:27:43;;;;;;;2.80;0.80;;;;;;;-1.55;100.00;98950.31;110325;1270;22333;-67
2023/02/20 03:30:22;;;;;;;3.90;1.00;;;;;;;-1.59;100.00;98949.39;110133;1272;22761;-68
2023/02/20 03:44:03;;;;;;;5.10;1.00;;;;;;;-1.68;100.00;98954.31;110159;1267;22233;-68
2023/02/20 03:46:32;;;;;;;2.70;1.10;;;;;;;-1.73;100.00;98951.63;109913;1270;22390;-68
2023/02/20 03:49:12;;;;;;;2.90;1.00;;;;;;;-1.73;100.00;98954.91;110172;1274;23041;-68
2023/02/20 03:51:42;;;;;;;3.60;0.90;;;;;;;-1.68;100.00;98961.88;109946;1272;22387;-68
2023/02/20 03:54:18;;;;;;;4.80;1.00;;;;;;;-1.71;100.00;98963.61;109981;1275;22423;-68
2023/02/20 03:56:54;;;;;;;3.60;1.10;;;;;;;-1.75;100.00;98960.02;110057;1273;22448;-68
2023/02/20 04:00:03;;;;;;;3.30;0.80;;;;;;;-1.80;100.00;98956.10;108427;1271;22571;-67
2023/02/20 04:02:44;;;;;;;3.60;0.90;;;;;;;-1.84;100.00;98951.06;107464;1273;22546;-68
2023/02/20 04:05:17;;;;;;;3.60;0.90;;;;;;;-1.82;100.00;98950.11;107238;1273;260397;-67
2023/02/20 04:09:10;;;;;;;4.60;0.90;;;;;;;-1.83;100.00;98939.15;103892;1301;545944;-67
2023/02/20 04:11:39;;;;;;;3.90;1.00;;;;;;;-1.91;100.00;98939.95;109183;1288;22420;-67
2023/02/20 04:14:08;;;;;;;2.70;1.00;;;;;;;-1.95;100.00;98933.63;109289;1289;22218;-68
2023/02/20 04:16:41;;;;;;;2.70;0.80;;;;;;;-1.89;100.00;98936.17;109014;1286;22455;-67
2023/02/20 04:19:14;;;;;;;3.40;1.20;;;;;;;-1.85;100.00;98935.39;109732;1278;22299;-68
2023/02/20 04:21:47;;;;;;;4.40;1.10;;;;;;;-1.87;100.00;98937.93;109503;1279;253239;-68
2023/02/20 04:24:31;;;;;;;4.00;0.90;;;;;;;-1.89;100.00;98932.00;109673;1273;22405;-68
2023/02/20 04:27:00;;;;;;;4.20;1.20;;;;;;;-1.86;100.00;98934.77;109703;1278;22387;-67
2023/02/20 04:29:28;;;;;;;5.80;1.60;;;;;;;-1.82;100.00;98936.08;109715;1273;22220;-67
2023/02/20 04:31:57;;;;;;;5.70;1.10;;;;;;;-1.86;100.00;98934.16;109729;1273;22397;-68
2023/02/20 04:34:28;;;;;;;3.80;1.00;;;;;;;-1.90;100.00;98932.90;109652;1274;24689;-68
2023/02/20 04:37:07;;;;;;;4.10;1.10;;;;;;;-1.92;100.00;98937.27;108374;1273;22673;-68
2023/02/20 04:39:35;;;;;;;2.80;0.90;;;;;;;-1.86;100.00;98935.77;106436;1275;23839;-68
2023/02/20 04:42:04;;;;;;;4.80;1.10;;;;;;;-1.82;100.00;98932.91;106602;1270;25392;-69
2023/02/20 04:44:35;;;;;;;3.60;1.20;;;;;;;-1.89;100.00;98929.05;107375;1269;25418;-67
2023/02/20 04:47:07;;;;;;;3.30;1.00;;;;;;;-1.90;100.00;98931.79;106692;1272;25370;-67
2023/02/20 04:49:35;;;;;;;5.90;1.20;;;;;;;-1.89;100.00;98933.76;106809;1270;25404;-67
2023/02/20 04:52:06;;;;;;;3.80;1.10;;;;;;;-1.87;100.00;98931.17;107225;1274;25376;-67
2023/02/20 04:54:35;;;;;;;3.00;1.00;;;;;;;-1.89;100.00;98939.06;107219;1270;25354;-67
2023/02/20 04:57:05;;;;;;;4.00;1.20;;;;;;;-1.94;100.00;98936.86;106754;1273;25312;-68
2023/02/20 04:59:38;;;;;;;5.50;1.60;;;;;;;-1.97;100.00;98938.39;106847;1270;25313;-68
2023/02/20 05:02:14;;;;;;;3.80;1.20;;;;;;;-1.95;100.00;98943.75;106846;1270;22566;-68
2023/02/20 05:04:42;;;;;;;4.90;1.30;;;;;;;-1.95;100.00;98947.00;107103;1269;26516;-68
2023/02/20 05:07:15;;;;;;;4.10;1.20;;;;;;;-2.00;100.00;98948.82;106724;1270;25334;-67
2023/02/20 05:09:44;;;;;;;2.40;0.80;;;;;;;-2.04;100.00;98944.89;107268;1271;25420;-68
2023/02/20 05:12:12;;;;;;;4.10;1.30;;;;;;;-1.99;100.00;98950.50;106737;1271;26143;-68
2023/02/20 05:14:42;;;;;;;4.20;1.20;;;;;;;-1.95;100.00;98950.16;106634;1270;25567;-67
2023/02/20 05:17:10;;;;;;;3.60;1.40;;;;;;;-1.97;100.00;98950.08;110168;1269;23085;-68
2023/02/20 05:19:39;;;;;;;2.70;1.00;;;;;;;-1.97;100.00;98948.85;110171;1269;22993;-68
2023/02/20 05:22:19;;;;;;;3.50;1.10;;;;;;;-1.94;100.00;98953.60;110231;1270;22356;-68
2023/02/20 05:24:48;;;;;;;6.90;1.20;;;;;;;-1.85;100.00;98958.38;110190;1270;22392;-68
2023/02/20 05:27:18;;;;;;;4.00;1.20;;;;;;;-1.84;100.00;98957.95;110212;1269;22404;-68
2023/02/20 05:29:47;;;;;;;3.80;1.60;;;;;;;-1.84;100.00;98957.39;110246;1270;22425;-68
2023/02/20 05:32:15;;;;;;;4.60;0.90;;;;;;;-1.85;100.00;98956.56;110163;1270;23806;-69
2023/02/20 05:34:44;;;;;;;5.80;1.20;;;;;;;-1.79;100.00;98957.20;110171;1271;22307;-68
2023/02/20 05:37:14;;;;;;;5.00;1.20;;;;;;;-1.73;100.00;98959.84;110169;1269;22345;-68
2023/02/20 05:39:42;;;;;;;2.50;1.00;;;;;;;-1.71;100.00;98957.04;110328;1276;22322;-69
2023/02/20 05:42:10;;;;;;;3.70;1.00;;;;;;;-1.70;100.00;98956.54;110300;1276;22319;-69
2023/02/20 05:44:38;;;;;;;3.70;1.20;;;;;;;-1.67;100.00;98954.35;110279;1276;22394;-68
2023/02/20 05:47:07;;;;;;;2.70;0.80;;;;;;;-1.56;100.00;98956.52;107651;1269;22766;-68
2023/02/20 05:49:35;;;;;;;4.20;0.90;;;;;;;-1.48;100.00;98954.31;107732;1271;23240;-68
2023/02/20 05:52:10;;;;;;;3.20;1.10;;;;;;;-1.48;100.00;98957.80;107515;1269;22651;-68
2023/02/20 05:54:39;;;;;;;4.10;1.00;;;;;;;-1.47;100.00;98959.64;108057;1269;23623;-67
2023/02/20 05:57:07;;;;;;;2.90;0.80;;;;;;;-1.45;100.00;98961.67;107449;1276;23841;-67
2023/02/20 05:59:35;;;;;;;3.40;1.10;;;;;;;-1.36;100.00;98966.44;107456;1275;23375;-68
2023/02/20 06:02:04;;;;;;;2.80;0.70;;;;;;;-1.29;100.00;98965.99;107530;1273;24539;-68
2023/02/20 06:04:32;;;;;;;3.40;1.10;;;;;;;-1.28;100.00;98964.79;107470;1276;22519;-67
2023/02/20 06:07:00;;;;;;;5.60;1.20;;;;;;;-1.26;100.00;98960.63;110184;1269;23044;-68
2023/02/20 06:09:28;;;;;;;3.90;1.20;;;;;;;-1.20;100.00;98960.05;110270;1271;22400;-67
2023/02/20 06:11:57;;;;;;;5.80;1.40;;;;;;;-1.11;100.00;98958.71;110264;1275;22337;-67
2023/02/20 06:14:25;;;;;;;3.60;1.20;;;;;;;-0.93;100.00;98963.05;110277;1270;22271;-68
2023/02/20 06:16:55;;;;;;;4.60;1.30;;;;;;;-0.82;100.00;98967.27;110306;1273;22342;-67
2023/02/20 06:19:25;;;;;;;3.30;1.20;;;;;;;-0.72;100.00;98964.13;110317;1276;22319;-68
2023/02/20 06:21:54;;;;;;;3.40;1.30;;;;;;;-0.62;100.00;98965.58;110275;1269;22244;-68
2023/02/20 06:24:22;;;;;;;3.10;1.00;;;;;;;-0.51;100.00;98970.05;110338;1273;22434;-67
2023/02/20 06:26:51;;;;;;;4.10;0.90;;;;;;;-0.38;100.00;98966.65;110282;1273;22345;-67
2023/02/20 06:29:19;;;;;;;2.60;1.00;;;;;;;-0.26;100.00;98966.50;110279;1269;22349;-67
2023/02/20 06:31:48;;;;;;;4.40;1.30;;;;;;;-0.15;100.00;98964.05;108199;1269;22528;-67
2023/02/20 06:34:16;;;;;;;4.00;1.20;;;;;;;-0.07;100.00;98973.18;107514;1276;22587;-67
2023/02/20 06:36:45;;;;;;;3.70;1.00;;;;;;;-0.01;100.00;98970.11;107597;1269;23341;-68
2023/02/20 06:39:13;;;;;;;5.00;1.00;;;;;;;0.07;100.00;98970.15;107472;1269;24206;-67
2023/02/20 06:41:42;;;;;;;3.40;0.90;;;;;;;0.13;100.00;98968.15;107364;1273;23298;-67
2023/02/20 06:44:11;;;;;;;4.00;1.20;;;;;;;0.20;100.00;98973.25;107536;1273;23277;-68
2023/02/20 06:46:39;;;;;;;2.90;1.00;;;;;;;0.23;100.00;98966.39;107642;1270;24017;-68
2023/02/20 06:49:08;;;;;;;4.60;1.00;;;;;;;0.27;100.00;98968.14;108001;1273;26757;-67
2023/02/20 06:51:36;;;;;;;4.00;1.20;;;;;;;0.32;100.00;98962.98;107319;1273;25412;-67
2023/02/20 06:54:05;;;;;;;2.20;0.80;;;;;;;0.39;100.00;98964.95;107350;1270;24075;-67
2023/02/20 06:56:34;;;;;;;3.30;1.20;;;;;;;0.44;100.00;98964.77;107189;1270;22523;-67
2023/02/20 06:59:05;;;;;;;3.40;1.50;;;;;;;0.50;100.00;98966.96;107277;1276;23488;-67
2023/02/20 07:01:39;;;;;;;4.40;1.60;;;;;;;0.58;100.00;98957.34;107436;1276;22519;-67
2023/02/20 07:04:16;;;;;;;4.70;1.50;;;;;;;0.65;100.00;98964.38;107828;1270;24273;-67
2023/02/20 07:06:44;;;;;;;4.40;1.20;;;;;;;0.68;100.00;98950.69;107394;1273;23275;-67
2023/02/20 07:09:12;;;;;;;3.50;1.20;;;;;;;0.71;100.00;98950.20;107525;1275;22681;-67
2023/02/20 07:11:41;;;;;;;3.80;1.30;;;;;;;0.79;100.00;98953.25;107492;1269;22767;-68
2023/02/20 07:14:09;;;;;;;3.70;0.90;;;;;;;0.91;100.00;98953.89;107393;1270;25345;-68
2023/02/20 07:16:38;;;;;;;4.50;1.20;;;;;;;1.00;100.00;98953.58;107651;1273;25580;-68
2023/02/20 07:19:13;;;;;;;3.90;1.20;;;;;;;1.04;100.00;98950.63;107534;1270;25313;-67
2023/02/20 07:21:41;;;;;;;3.60;1.40;;;;;;;1.07;100.00;98952.20;107423;1276;22957;-67
2023/02/20 07:24:10;;;;;;;3.80;1.00;;;;;;;1.10;100.00;98949.45;107395;1269;24202;-68
2023/02/20 07:26:38;;;;;;;2.40;0.80;;;;;;;1.17;100.00;98957.39;107417;1269;22533;-67
2023/02/20 07:29:06;;;;;;;3.90;1.00;;;;;;;1.21;100.00;98955.02;110275;1270;23198;-65
2023/02/20 07:31:37;;;;;;;4.30;1.30;;;;;;;1.22;100.00;98949.84;110321;1270;22396;-68
2023/02/20 07:34:07;;;;;;;4.10;1.20;;;;;;;1.25;100.00;98953.36;110283;1275;22930;-65
2023/02/20 07:36:37;;;;;;;3.60;1.30;;;;;;;1.28;100.00;98956.85;110309;1269;23416;-65
2023/02/20 07:39:08;;;;;;;6.20;1.40;;;;;;;1.29;100.00;98953.04;110048;1273;23301;-65
2023/02/20 07:41:37;;;;;;;3.90;1.40;;;;;;;1.39;100.00;98950.27;107077;1269;23736;-65
2023/02/20 07:44:06;;;;;;;3.50;1.20;;;;;;;1.47;100.00;98951.00;106539;1269;23291;-67
2023/02/20 07:46:35;;;;;;;4.60;1.20;;;;;;;1.52;100.00;98946.09;107604;1270;25373;-67
2023/02/20 07:49:04;;;;;;;4.40;1.40;;;;;;;1.57;100.00;98947.75;107573;1270;26529;-67
2023/02/20 07:51:32;;;;;;;3.40;1.20;;;;;;;1.63;100.00;98943.55;107538;1275;22750;-65
2023/02/20 07:54:00;;;;;;;4.90;1.50;;;;;;;1.68;100.00;98942.15;106596;1270;26545;-67
2023/02/20 07:56:29;;;;;;;4.50;1.20;;;;;;;1.71;100.00;98940.31;107714;1275;23370;-66
2023/02/20 07:58:58;;;;;;;6.00;1.60;;;;;;;1.75;100.00;98941.43;106590;1270;23387;-65
2023/02/20 08:01:28;;;;;;;4.50;1.60;;;;;;;1.72;100.00;98942.45;106720;1270;23674;-65
2023/02/20 08:03:57;;;;;;;4.60;1.60;;;;;;;1.78;100.00;98936.16;106821;1270;22522;-66
2023/02/20 08:06:27;;;;;;;3.90;1.30;;;;;;;1.96;100.00;98941.88;106976;1269;24688;-66
2023/02/20 08:08:55;;;;;;;4.00;1.50;;;;;;;2.03;100.00;98945.96;106586;1274;28681;-66
2023/02/20 08:11:25;;;;;;;3.20;1.20;;;;;;;2.04;100.00;98946.35;106983;1270;23207;-66
2023/02/20 08:13:54;;;;;;;5.50;1.60;;;;;;;2.07;100.00;98945.00;106778;1275;25398;-66
2023/02/20 08:16:23;;;;;;;3.40;1.30;;;;;;;2.13;100.00;98942.94;106856;1274;26212;-66
2023/02/20 08:18:52;;;;;;;4.00;1.50;;;;;;;2.21;100.00;98940.27;107644;1270;25344;-65
2023/02/20 08:21:22;;;;;;;6.00;1.40;;;;;;;2.30;100.00;98940.33;106617;1270;25360;-66
2023/02/20 08:23:51;;;;;;;5.40;1.20;;;;;;;2.38;100.00;98948.51;106621;1271;25370;-65
2023/02/20 08:26:20;;;;;;;6.80;1.40;;;;;;;2.47;100.00;98949.98;110300;1276;23002;-67
2023/02/20 08:28:48;;;;;;;2.90;1.10;;;;;;;2.53;100.00;98947.35;110356;1276;22438;-68
2023/02/20 08:31:17;;;;;;;4.60;1.40;;;;;;;2.53;100.00;98951.21;110333;1273;22238;-68
2023/02/20 08:33:59;;;;;;;6.30;2.10;;;;;;;2.61;100.00;98939.98;110310;1269;22430;-67
2023/02/20 08:36:28;;;;;;;3.60;1.20;;;;;;;2.63;100.00;98946.73;110299;1276;23139;-67
2023/02/20 08:38:56;;;;;;;3.60;1.60;;;;;;;2.65;100.00;98946.46;110309;1272;22290;-67
2023/02/20 08:41:25;;;;;;;4.70;1.20;;;;;;;2.72;100.00;98940.73;110301;1273;22291;-67
2023/02/20 08:43:53;;;;;;;4.30;1.20;;;;;;;2.83;100.00;98942.77;110316;1269;22213;-69
2023/02/20 08:46:21;;;;;;;3.90;1.30;;;;;;;2.88;100.00;98941.31;110332;1269;23161;-68
2023/02/20 08:48:49;;;;;;;4.10;1.50;;;;;;;2.95;100.00;98936.70;110318;1270;22359;-67
2023/02/20 08:51:19;;;;;;;3.70;1.60;;;;;;;3.01;100.00;98933.95;110313;1276;22342;-67
2023/02/20 08:53:48;;;;;;;4.40;1.60;;;;;;;3.04;100.00;98933.80;110276;1276;22341;-67
2023/02/20 08:56:20;;;;;;;3.70;1.40;;;;;;;3.16;100.00;98940.16;110329;1276;22118;-67
2023/02/20 08:58:48;;;;;;;6.30;1.40;;;;;;;3.26;100.00;98924.65;110234;1271;22382;-72
2023/02/20 09:01:16;;;;;;;4.00;1.60;;;;;;;3.34;100.00;98929.73;110254;1270;22374;-67
2023/02/20 09:03:45;;;;;;;4.80;1.70;;;;;;;3.41;100.00;98932.54;110214;1272;22329;-68
2023/02/20 09:06:13;;;;;;;2.50;1.00;;;;;;;3.50;100.00;98929.87;110268;1271;22980;-68
2023/02/20 09:08:42;;;;;;;3.60;1.40;;;;;;;3.57;100.00;98929.18;110273;1271;23211;-68
2023/02/20 09:11:13;;;;;;;5.50;1.20;;;;;;;3.61;100.00;98922.41;110327;1271;22242;-68
2023/02/20 09:13:43;;;;;;;4.00;1.40;;;;;;;3.66;100.00;98918.55;110245;1270;22394;-68
2023/02/20 09:16:13;;;;;;;4.60;1.50;;;;;;;3.76;100.00;98923.80;110327;1274;22430;-69
2023/02/20 09:18:42;;;;;;;3.00;1.30;;;;;;;3.88;100.00;98916.56;110218;1269;22317;-69
2023/02/20 09:21:12;;;;;;;3.50;1.20;;;;;;;3.96;100.00;98919.30;110258;1270;22449;-68
2023/02/20 09:23:40;;;;;;;4.20;1.90;;;;;;;3.99;100.00;98916.05;110313;1269;22481;-68
2023/02/20 09:26:08;;;;;;;4.70;1.50;;;;;;;4.02;100.00;98913.45;110256;1273;22336;-69
2023/02/20 09:28:39;;;;;;;4.50;1.50;;;;;;;3.99;100.00;98911.04;110261;1270;23010;-69
2023/02/20 09:31:07;;;;;;;3.10;0.90;;;;;;;4.02;100.00;98907.90;107527;1269;22524;-67
2023/02/20 09:33:36;;;;;;;3.20;1.20;;;;;;;4.06;100.00;98902.95;107561;1270;26112;-67
2023/02/20 09:36:05;;;;;;;6.00;1.50;;;;;;;4.07;100.00;98904.68;107377;1273;22586;-67
2023/02/20 09:38:33;;;;;;;4.90;1.50;;;;;;;4.06;100.00;98905.70;107445;1270;24387;-67
2023/02/20 09:41:02;;;;;;;3.30;1.10;;;;;;;3.97;100.00;98906.33;107657;1270;22535;-71
2023/02/20 09:43:48;;;;;;;4.60;1.40;;;;;;;3.91;100.00;98905.70;107353;1276;23030;-67
2023/02/20 09:46:19;;;;;;;3.00;1.30;;;;;;;3.92;100.00;98905.56;107441;1270;24316;-67
2023/02/20 09:49:07;;;;;;;5.10;1.20;;;;;;;3.89;100.00;98898.75;107528;1272;26272;-67
2023/02/20 09:51:42;;;;;;;3.70;1.30;;;;;;;3.94;100.00;98888.97;108517;1276;22643;-68
2023/02/20 09:54:30;;;;;;;3.60;1.30;;;;;;;4.04;100.00;98897.98;107379;1276;22638;-68
2023/02/20 09:57:01;;;;;;;2.90;1.10;;;;;;;4.05;100.00;98896.16;107659;1275;26533;-67
2023/02/20 09:59:36;;;;;;;5.20;1.40;;;;;;;3.99;100.00;98886.81;108187;1269;23041;-66
2023/02/20 10:02:15;;;;;;;3.00;1.00;;;;;;;3.94;100.00;98890.09;107293;1276;23310;-68
2023/02/20 10:04:48;;;;;;;4.00;1.80;;;;;;;3.89;100.00;98888.30;107634;1270;24889;-67
2023/02/20 10:07:36;;;;;;;4.10;1.50;;;;;;;3.82;100.00;98887.98;107725;1270;25355;-67
2023/02/20 10:10:18;;;;;;;5.20;1.20;;;;;;;3.79;100.00;98888.64;107358;1270;25276;-67
2023/02/20 10:12:55;;;;;;;3.40;1.40;;;;;;;3.71;100.00;98883.58;107415;1276;22533;-67
2023/02/20 10:15:29;;;;;;;5.20;1.70;;;;;;;3.54;100.00;98876.77;107425;1270;22614;-67
2023/02/20 10:18:25;;;;;;;5.30;1.60;;;;;;;3.52;100.00;98881.69;107585;1274;25386;-67
2023/02/20 10:21:00;;;;;;;4.80;1.60;;;;;;;3.56;100.00;98884.27;107487;1269;23061;-68
2023/02/20 10:23:49;;;;;;;3.80;1.50;;;;;;;3.50;100.00;98873.31;107422;1269;25367;-68
2023/02/20 10:26:33;;;;;;;4.60;1.90;;;;;;;3.57;100.00;98876.32;107405;1276;25304;-67
2023/02/20 10:29:33;;;;;;;8.60;2.20;;;;;;;3.66;100.00;98867.99;107449;1272;22952;-67
2023/02/20 10:32:09;;;;;;;5.40;1.50;;;;;;;3.66;100.00;98862.56;107529;1269;22535;-67
2023/02/20 10:34:48;;;;;;;4.70;1.90;;;;;;;3.45;100.00;98849.02;107441;1269;23740;-68
2023/02/20 10:37:18;;;;;;;3.60;1.80;;;;;;;3.27;100.00;98851.02;107509;1270;22533;-68
2023/02/20 10:39:51;;;;;;;5.60;2.00;;;;;;;3.14;100.00;98844.15;109874;1276;22499;-68
2023/02/20 10:42:23;;;;;;;4.40;1.80;;;;;;;3.14;100.00;98846.19;110165;1269;22376;-68
2023/02/20 10:45:00;;;;;;;6.00;2.40;;;;;;;3.11;100.00;98844.81;110200;1276;22301;-68
2023/02/20 10:47:43;;;;;;;3.70;1.50;;;;;;;3.08;100.00;98854.70;110290;1276;22389;-67
2023/02/20 10:50:18;;;;;;;5.40;1.30;;;;;;;2.99;100.00;98851.71;110071;1270;22422;-68
2023/02/20 10:52:51;;;;;;;4.50;1.30;;;;;;;2.95;100.00;98847.38;108867;1276;22569;-68
2023/02/20 10:55:27;;;;;;;5.10;2.00;;;;;;;2.95;100.00;98840.52;107609;1270;22603;-68
2023/02/20 10:58:16;;;;;;;5.80;2.40;;;;;;;3.11;100.00;98831.41;107739;1275;25421;-68
2023/02/20 11:00:55;;;;;;;9.10;2.10;;;;;;;3.28;100.00;98833.97;107441;1276;23382;-68
2023/02/20 11:03:30;;;;;;;6.20;1.70;;;;;;;3.37;100.00;98830.94;107487;1273;23267;-68
2023/02/20 11:06:03;;;;;;;3.70;1.80;;;;;;;3.37;100.00;98828.31;107498;1260;25344;-68
2023/02/20 11:08:31;;;;;;;5.00;2.50;;;;;;;3.32;100.00;98825.81;107455;1271;23360;-67
2023/02/20 11:11:11;;;;;;;3.50;1.70;;;;;;;3.30;100.00;98819.32;107515;1273;25033;-68
2023/02/20 11:13:40;;;;;;;4.20;1.70;;;;;;;3.28;100.00;98819.72;107503;1270;23305;-68
2023/02/20 11:16:08;;;;;;;4.20;1.60;;;;;;;3.21;100.00;98816.23;107456;1276;22666;-68
2023/02/20 11:18:37;;;;;;;6.40;1.70;;;;;;;3.16;100.00;98818.73;107336;1275;22531;-68
2023/02/20 11:21:06;;;;;;;5.90;2.00;;;;;;;3.16;100.00;98817.34;107339;1272;23237;-68
2023/02/20 11:23:41;;;;;;;6.80;2.70;;;;;;;3.18;100.00;98811.35;107471;1269;23358;-68
2023/02/20 11:26:19;;;;;;;5.40;2.00;;;;;;;3.28;100.00;98816.76;107491;1276;22792;-67
2023/02/20 11:28:56;;;;;;;5.80;2.40;;;;;;;3.38;100.00;98813.73;107534;1270;23456;-68
2023/02/20 11:31:26;;;;;;;6.30;2.00;;;;;;;3.38;100.00;98811.73;110271;1272;23081;-68
2023/02/20 11:33:55;;;;;;;7.00;2.60;;;;;;;3.38;100.00;98810.34;110255;1269;22222;-68
2023/02/20 11:36:26;;;;;;;5.40;2.00;;;;;;;3.40;100.00;98804.98;110218;1270;22393;-68
2023/02/20 11:39:02;;;;;;;6.20;2.20;;;;;;;3.38;100.00;98805.46;110104;1270;22346;-68
2023/02/20 11:41:35;;;;;;;5.00;2.20;;;;;;;3.42;100.00;98810.67;110276;1276;23171;-69
2023/02/20 11:44:09;;;;;;;6.80;2.40;;;;;;;3.51;100.00;98812.80;110312;1273;22340;-67
2023/02/20 11:46:38;;;;;;;5.90;2.30;;;;;;;3.66;100.00;98804.91;110242;1276;23074;-69
2023/02/20 11:49:09;;;;;;;5.60;2.10;;;;;;;3.71;100.00;98803.58;110284;1276;22386;-68
2023/02/20 11:51:42;;;;;;;4.40;2.10;;;;;;;3.69;100.00;98796.34;110271;1276;23558;-68
2023/02/20 11:54:16;;;;;;;3.90;1.30;;;;;;;3.60;100.00;98790.58;110304;1276;22344;-69
2023/02/20 11:57:15;;;;;;;3.90;1.40;;;;;;;3.51;100.00;98790.20;110298;1270;22491;-66
2023/02/20 12:00:07;;;;;;;4.20;1.40;;;;;;;3.45;100.00;98789.95;110238;1272;22803;-67
2023/02/20 12:02:49;;;;;;;3.40;1.10;;;;;;;3.42;100.00;98787.79;110259;1276;23107;-66